createdAt,value
2022-11-22T00:00:44.225Z,15.10
2022-11-22T00:03:11.957Z,13.38
2022-11-22T00:05:39.421Z,16.15
2022-11-22T00:08:06.923Z,16.42
2022-11-22T00:10:34.934Z,14.82
2022-11-22T00:13:02.504Z,15.55
2022-11-22T00:15:30.473Z,16.08
2022-11-22T00:17:58.040Z,16.37
2022-11-22T00:20:25.402Z,16.23
2022-11-22T00:22:52.829Z,15.73
2022-11-22T00:25:20.433Z,15.43
2022-11-22T00:27:47.774Z,15.05
2022-11-22T00:30:15.576Z,15.48
2022-11-22T00:32:43.195Z,14.80
2022-11-22T00:35:11.514Z,12.60
2022-11-22T00:37:38.889Z,13.13
2022-11-22T00:40:07.098Z,12.82
2022-11-22T00:42:34.381Z,12.00
2022-11-22T00:45:01.725Z,13.55
2022-11-22T00:47:29.270Z,14.30
2022-11-22T00:49:56.550Z,13.25
2022-11-22T00:52:23.821Z,12.50
2022-11-22T00:54:54.754Z,13.20
2022-11-22T00:57:22.998Z,11.65
2022-11-22T00:59:50.704Z,12.48
2022-11-22T01:02:18.011Z,12.07
2022-11-22T01:04:46.032Z,12.02
2022-11-22T01:07:13.666Z,11.82
2022-11-22T01:09:41.019Z,12.27
2022-11-22T01:12:08.678Z,11.90
2022-11-22T01:14:36.240Z,11.90
2022-11-22T01:17:03.560Z,11.15
2022-11-22T01:19:31.292Z,11.35
2022-11-22T01:21:58.980Z,10.98
2022-11-22T01:24:26.391Z,10.48
2022-11-22T01:26:53.921Z,10.20
2022-11-22T01:29:21.534Z,11.93
2022-11-22T01:31:48.831Z,10.63
2022-11-22T01:34:16.117Z,10.80
2022-11-22T01:36:43.665Z,11.10
2022-11-22T01:39:11.014Z,11.12
2022-11-22T01:41:38.389Z,12.50
2022-11-22T01:44:22.196Z,11.25
2022-11-22T01:46:51.926Z,10.30
2022-11-22T01:50:05.979Z,10.18
2022-11-22T01:52:33.742Z,9.35
2022-11-22T01:55:07.635Z,9.90
2022-11-22T01:57:37.670Z,10.88
2022-11-22T02:00:08.785Z,10.05
2022-11-22T02:02:41.432Z,10.35
2022-11-22T02:05:13.478Z,9.82
2022-11-22T02:07:45.307Z,11.12
2022-11-22T02:10:13.483Z,9.75
2022-11-22T02:12:42.014Z,10.02
2022-11-22T02:15:10.185Z,10.43
2022-11-22T02:17:37.819Z,9.73
2022-11-22T02:20:07.063Z,10.98
2022-11-22T02:22:45.070Z,10.40
2022-11-22T02:25:30.555Z,10.82
2022-11-22T02:27:58.066Z,10.63
2022-11-22T02:30:25.659Z,11.95
2022-11-22T02:32:52.982Z,11.68
2022-11-22T02:35:23.089Z,11.90
2022-11-22T02:37:55.269Z,12.10
2022-11-22T02:40:23.023Z,12.68
2022-11-22T02:42:54.303Z,12.43
2022-11-22T02:45:21.651Z,12.37
2022-11-22T02:47:48.990Z,13.70
2022-11-22T02:50:16.621Z,13.50
2022-11-22T02:52:44.007Z,13.07
2022-11-22T02:55:11.303Z,12.27
2022-11-22T02:57:38.862Z,12.93
2022-11-22T03:00:06.967Z,13.88
2022-11-22T03:02:34.294Z,13.23
2022-11-22T03:05:01.867Z,14.10
2022-11-22T03:07:29.326Z,13.07
2022-11-22T03:09:56.878Z,14.30
2022-11-22T03:12:24.503Z,13.70
2022-11-22T03:14:51.914Z,14.07
2022-11-22T03:17:19.193Z,14.63
2022-11-22T03:19:46.827Z,14.60
2022-11-22T03:22:14.214Z,15.20
2022-11-22T03:24:41.607Z,14.52
2022-11-22T03:27:09.203Z,15.13
2022-11-22T03:29:36.510Z,14.25
2022-11-22T03:32:03.910Z,14.10
2022-11-22T03:34:31.599Z,14.35
2022-11-22T03:36:58.929Z,15.05
2022-11-22T03:39:26.308Z,14.68
2022-11-22T03:41:56.294Z,15.60
2022-11-22T03:44:23.836Z,15.70
2022-11-22T03:46:51.143Z,14.85
2022-11-22T03:49:18.759Z,15.68
2022-11-22T03:51:46.065Z,15.40
2022-11-22T03:54:13.421Z,14.13
2022-11-22T03:56:40.987Z,14.48
2022-11-22T03:59:08.309Z,15.30
2022-11-22T04:01:35.643Z,15.55
2022-11-22T04:04:03.264Z,14.40
2022-11-22T04:06:30.603Z,15.82
2022-11-22T04:08:58.019Z,13.95
2022-11-22T04:11:25.747Z,14.60
2022-11-22T04:14:11.493Z,13.62
2022-11-22T04:16:39.200Z,14.57
2022-11-22T04:19:06.556Z,15.05
2022-11-22T04:21:34.227Z,12.80
2022-11-22T04:24:22.587Z,13.45
2022-11-22T04:26:50.191Z,14.15
2022-11-22T04:29:18.518Z,13.55
2022-11-22T04:32:05.128Z,14.00
2022-11-22T04:34:33.109Z,14.77
2022-11-22T04:37:01.149Z,16.10
2022-11-22T04:39:28.589Z,14.77
2022-11-22T04:42:15.384Z,15.57
2022-11-22T04:44:43.704Z,15.30
2022-11-22T04:47:13.317Z,15.32
2022-11-22T04:49:40.642Z,15.35
2022-11-22T04:52:27.726Z,14.45
2022-11-22T04:54:55.339Z,15.57
2022-11-22T04:57:22.657Z,15.00
2022-11-22T04:59:50.183Z,15.27
2022-11-22T05:02:17.769Z,14.13
2022-11-22T05:04:50.459Z,13.73
2022-11-22T05:07:18.451Z,14.93
2022-11-22T05:09:45.802Z,14.87
2022-11-22T05:12:13.163Z,14.73
2022-11-22T05:14:40.779Z,15.45
2022-11-22T05:17:11.631Z,15.23
2022-11-22T05:22:13.814Z,14.52
2022-11-22T05:24:41.431Z,14.10
2022-11-22T05:27:09.095Z,13.93
2022-11-22T05:29:36.372Z,15.43
2022-11-22T05:32:04.156Z,15.20
2022-11-22T05:34:31.485Z,15.82
2022-11-22T05:36:59.195Z,16.15
2022-11-22T05:39:26.976Z,16.62
2022-11-22T05:41:57.251Z,15.02
2022-11-22T05:44:24.546Z,15.93
2022-11-22T05:46:52.097Z,14.82
2022-11-22T05:49:19.634Z,15.27
2022-11-22T05:51:46.928Z,15.05
2022-11-22T05:54:14.646Z,13.07
2022-11-22T05:56:42.051Z,14.45
2022-11-22T05:59:09.378Z,13.73
2022-11-22T06:01:36.945Z,13.68
2022-11-22T06:04:04.587Z,13.82
2022-11-22T06:06:32.029Z,14.15
2022-11-22T06:08:59.799Z,12.07
2022-11-22T06:11:28.082Z,12.90
2022-11-22T06:14:00.027Z,11.07
2022-11-22T06:16:27.598Z,11.00
2022-11-22T06:18:55.372Z,12.00
2022-11-22T06:21:24.701Z,11.55
2022-11-22T06:23:53.846Z,11.77
2022-11-22T06:26:22.807Z,12.00
2022-11-22T06:28:50.627Z,11.25
2022-11-22T06:31:21.078Z,10.90
2022-11-22T06:33:48.562Z,11.63
2022-11-22T06:36:18.222Z,11.63
2022-11-22T06:38:46.577Z,11.88
2022-11-22T06:41:16.245Z,13.60
2022-11-22T06:43:48.752Z,11.93
2022-11-22T06:46:18.748Z,12.60
2022-11-22T06:48:46.365Z,13.10
2022-11-22T06:51:18.947Z,12.60
2022-11-22T06:53:48.818Z,12.93
2022-11-22T06:56:23.694Z,12.73
2022-11-22T06:58:52.126Z,12.13
2022-11-22T07:01:21.746Z,12.85
2022-11-22T07:03:49.638Z,12.85
2022-11-22T07:06:18.702Z,12.90
2022-11-22T07:08:47.584Z,12.43
2022-11-22T07:11:20.343Z,13.95
2022-11-22T07:13:48.563Z,14.30
2022-11-22T07:16:18.540Z,13.00
2022-11-22T07:18:46.418Z,12.48
2022-11-22T07:21:16.548Z,12.27
2022-11-22T07:23:45.945Z,11.48
2022-11-22T07:26:14.533Z,11.60
2022-11-22T07:28:42.441Z,12.30
2022-11-22T07:31:11.623Z,11.70
2022-11-22T07:33:39.487Z,12.30
2022-11-22T07:36:11.283Z,12.55
2022-11-22T07:38:38.946Z,12.43
2022-11-22T07:41:07.361Z,12.40
2022-11-22T07:43:35.152Z,13.50
2022-11-22T07:46:05.579Z,11.98
2022-11-22T07:48:33.162Z,12.55
2022-11-22T07:51:05.743Z,12.80
2022-11-22T07:53:34.047Z,11.73
2022-11-22T07:56:05.631Z,12.60
2022-11-22T07:58:34.179Z,13.32
2022-11-22T08:01:06.805Z,13.07
2022-11-22T08:03:34.883Z,11.90
2022-11-22T08:06:03.810Z,12.07
2022-11-22T08:08:31.213Z,11.85
2022-11-22T08:10:58.863Z,11.45
2022-11-22T08:13:26.746Z,12.82
2022-11-22T08:15:54.860Z,11.77
2022-11-22T08:18:23.124Z,13.02
2022-11-22T08:20:50.485Z,11.65
2022-11-22T08:23:18.139Z,12.70
2022-11-22T08:25:45.772Z,12.73
2022-11-22T08:28:13.196Z,12.98
2022-11-22T08:30:40.499Z,12.98
2022-11-22T08:33:08.103Z,12.80
2022-11-22T08:35:35.471Z,12.02
2022-11-22T08:38:02.766Z,12.90
2022-11-22T08:40:30.319Z,12.37
2022-11-22T08:42:57.840Z,13.20
2022-11-22T08:45:25.417Z,13.15
2022-11-22T08:47:53.066Z,12.45
2022-11-22T08:50:20.406Z,14.35
2022-11-22T08:52:47.736Z,12.32
2022-11-22T08:55:15.491Z,12.88
2022-11-22T08:57:42.781Z,12.98
2022-11-22T09:00:11.373Z,13.60
2022-11-22T09:02:39.067Z,13.57
2022-11-22T09:05:06.461Z,12.82
2022-11-22T09:10:21.381Z,14.07
2022-11-22T09:12:48.781Z,13.80
2022-11-22T09:15:16.553Z,12.77
2022-11-22T09:17:44.326Z,13.15
2022-11-22T09:20:12.010Z,12.55
2022-11-22T09:22:39.705Z,12.43
2022-11-22T09:25:07.968Z,12.88
2022-11-22T09:27:35.894Z,13.07
2022-11-22T09:30:04.113Z,13.60
2022-11-22T09:32:33.841Z,14.23
2022-11-22T09:35:01.361Z,12.77
2022-11-22T09:37:28.751Z,13.98
2022-11-22T09:39:56.330Z,13.57
2022-11-22T09:43:01.518Z,13.13
2022-11-22T09:46:08.182Z,13.27
2022-11-22T09:48:53.746Z,13.02
2022-11-22T09:51:24.116Z,14.25
2022-11-22T09:54:00.089Z,14.45
2022-11-22T09:56:28.623Z,13.70
2022-11-22T09:58:59.428Z,14.07
2022-11-22T10:01:51.532Z,14.13
2022-11-22T10:04:28.981Z,14.85
2022-11-22T10:07:02.214Z,14.35
2022-11-22T10:10:14.993Z,15.77
2022-11-22T10:12:53.084Z,15.70
2022-11-22T10:15:44.147Z,15.88
2022-11-22T10:18:21.207Z,15.25
2022-11-22T10:20:49.489Z,15.00
2022-11-22T10:23:19.202Z,15.70
2022-11-22T10:26:23.212Z,15.30
2022-11-22T10:29:31.619Z,14.98
2022-11-22T10:32:13.517Z,15.73
2022-11-22T10:34:59.869Z,15.68
2022-11-22T10:37:39.562Z,17.70
2022-11-22T10:40:25.654Z,15.45
2022-11-22T10:43:05.150Z,16.00
2022-11-22T10:45:35.348Z,15.43
2022-11-22T10:48:13.745Z,15.68
2022-11-22T10:51:00.058Z,15.88
2022-11-22T10:53:48.362Z,15.63
2022-11-22T10:56:53.813Z,15.55
2022-11-22T10:59:47.303Z,15.52
2022-11-22T11:02:32.016Z,16.77
2022-11-22T11:05:01.013Z,15.63
2022-11-22T11:07:28.654Z,16.25
2022-11-22T11:10:18.017Z,16.65
2022-11-22T11:12:57.260Z,15.68
2022-11-22T11:15:44.037Z,15.93
2022-11-22T11:18:16.429Z,15.45
2022-11-22T11:20:44.010Z,15.25
2022-11-22T11:23:15.867Z,15.93
2022-11-22T11:25:48.367Z,17.65
2022-11-22T11:28:27.585Z,16.48
2022-11-22T11:31:01.063Z,16.33
2022-11-22T11:33:30.802Z,15.35
2022-11-22T11:36:14.301Z,16.85
2022-11-22T11:38:44.804Z,16.48
2022-11-22T11:41:20.997Z,15.93
2022-11-22T11:43:49.671Z,15.05
2022-11-22T11:46:27.040Z,15.80
2022-11-22T11:48:56.313Z,16.30
2022-11-22T11:51:39.098Z,17.23
2022-11-22T11:54:19.503Z,14.60
2022-11-22T11:56:57.902Z,15.43
2022-11-22T11:59:37.696Z,16.90
2022-11-22T12:02:11.112Z,16.48
2022-11-22T12:05:00.494Z,16.62
2022-11-22T12:07:39.244Z,15.73
2022-11-22T12:10:30.502Z,15.75
2022-11-22T12:13:04.585Z,16.75
2022-11-22T12:15:44.083Z,16.87
2022-11-22T12:18:30.875Z,16.90
2022-11-22T12:21:25.202Z,18.20
2022-11-22T12:24:42.804Z,17.42
2022-11-22T12:26:58.371Z,17.60
2022-11-22T12:29:26.001Z,18.77
2022-11-22T12:32:11.865Z,18.70
2022-11-22T12:34:45.443Z,17.83
2022-11-22T12:37:17.807Z,19.48
2022-11-22T12:39:48.168Z,18.20
2022-11-22T12:42:30.351Z,18.62
2022-11-22T12:45:28.669Z,19.12
2022-11-22T12:47:58.006Z,17.60
2022-11-22T12:50:49.558Z,18.37
2022-11-22T12:53:24.081Z,19.60
2022-11-22T12:56:09.488Z,18.95
2022-11-22T12:58:58.147Z,17.75
2022-11-22T13:01:29.032Z,20.25
2022-11-22T13:04:01.711Z,20.35
2022-11-22T13:06:34.866Z,19.35
2022-11-22T13:09:07.284Z,19.02
2022-11-22T13:14:17.761Z,18.75
2022-11-22T13:16:50.390Z,19.12
2022-11-22T13:19:20.290Z,18.75
2022-11-22T13:22:00.162Z,18.05
2022-11-22T13:24:35.377Z,20.25
2022-11-22T13:27:19.167Z,19.48
2022-11-22T13:29:47.511Z,18.58
2022-11-22T13:32:20.755Z,18.85
2022-11-22T13:35:12.539Z,18.17
2022-11-22T13:37:49.006Z,18.13
2022-11-22T13:40:16.534Z,17.48
2022-11-22T13:42:44.125Z,17.17
2022-11-22T13:45:21.686Z,17.33
2022-11-22T13:47:49.537Z,15.35
2022-11-22T13:50:41.847Z,16.20
2022-11-22T13:53:31.413Z,15.73
2022-11-22T13:56:21.349Z,15.02
2022-11-22T13:58:51.759Z,15.38
2022-11-22T14:01:34.907Z,14.43
2022-11-22T14:04:21.076Z,15.23
2022-11-22T14:07:01.648Z,14.10
2022-11-22T14:09:51.153Z,13.65
2022-11-22T14:12:50.774Z,14.57
2022-11-22T14:15:41.394Z,14.32
2022-11-22T14:18:24.666Z,15.50
2022-11-22T14:21:05.798Z,14.15
2022-11-22T14:23:43.394Z,14.32
2022-11-22T14:26:20.066Z,16.85
2022-11-22T14:29:12.913Z,14.93
2022-11-22T14:31:40.735Z,14.85
2022-11-22T14:34:26.165Z,13.40
2022-11-22T14:37:12.508Z,15.30
2022-11-22T14:39:47.315Z,13.57
2022-11-22T14:42:41.046Z,16.15
2022-11-22T14:45:09.982Z,15.43
2022-11-22T14:47:47.866Z,15.63
2022-11-22T14:50:37.329Z,14.85
2022-11-22T14:53:29.538Z,16.20
2022-11-22T14:56:21.690Z,16.07
2022-11-22T14:58:58.313Z,15.35
2022-11-22T15:01:54.753Z,15.25
2022-11-22T15:09:11.062Z,17.02
2022-11-22T15:09:19.463Z,19.17
2022-11-22T15:10:43.674Z,16.42
2022-11-22T15:13:29.770Z,15.25
2022-11-22T15:59:42.078Z,13.73
2022-11-22T16:02:16.058Z,14.23
2022-11-22T16:04:49.267Z,18.92
2022-11-22T16:07:46.793Z,18.73
2022-11-22T16:10:27.224Z,18.52
2022-11-22T16:12:54.596Z,16.35
2022-11-22T16:15:38.523Z,15.48
2022-11-22T16:18:08.579Z,14.18
2022-11-22T16:20:37.750Z,16.98
2022-11-22T16:23:13.590Z,16.05
2022-11-22T16:25:44.030Z,16.10
2022-11-22T16:28:28.715Z,20.95
2022-11-22T16:30:58.432Z,23.05
2022-11-22T16:33:25.793Z,16.95
2022-11-22T16:35:55.015Z,16.52
2022-11-22T16:38:23.562Z,14.85
2022-11-22T16:40:51.099Z,14.73
2022-11-22T16:43:23.358Z,13.73
2022-11-22T16:48:31.663Z,23.95
2022-11-22T16:51:12.955Z,16.47
2022-11-22T16:53:45.203Z,14.43
2022-11-22T16:58:48.098Z,13.07
2022-11-22T17:01:18.918Z,13.65
2022-11-22T17:03:47.465Z,13.10
2022-11-22T17:06:22.317Z,13.62
2022-11-22T17:08:51.266Z,14.87
2022-11-22T17:11:20.845Z,15.50
2022-11-22T17:13:48.340Z,15.80
2022-11-22T17:16:19.303Z,19.65
2022-11-22T17:18:47.665Z,16.80
2022-11-22T17:21:16.845Z,15.48
2022-11-22T17:23:45.209Z,14.40
2022-11-22T17:26:12.559Z,23.50
2022-11-22T17:28:39.925Z,13.52
2022-11-22T17:31:14.941Z,13.40
2022-11-22T17:33:42.327Z,13.15
2022-11-22T17:36:20.982Z,11.77
2022-11-22T17:38:48.278Z,11.93
2022-11-22T17:41:16.171Z,12.52
2022-11-22T17:43:43.474Z,12.32
2022-11-22T17:46:10.822Z,13.43
2022-11-22T17:48:38.447Z,13.30
2022-11-22T17:51:12.529Z,17.52
2022-11-22T17:53:40.088Z,17.48
2022-11-22T17:56:11.510Z,15.70
2022-11-22T17:58:40.239Z,17.00
2022-11-22T18:01:10.084Z,14.23
2022-11-22T18:03:38.414Z,17.98
2022-11-22T18:06:06.739Z,34.55
2022-11-22T18:08:34.091Z,36.22
2022-11-22T18:11:02.413Z,41.33
2022-11-22T18:13:31.550Z,18.80
2022-11-22T18:16:03.433Z,14.85
2022-11-22T18:21:19.465Z,12.95
2022-11-22T18:23:47.063Z,12.82
2022-11-22T18:26:38.216Z,12.10
2022-11-22T18:29:35.574Z,12.43
2022-11-22T18:31:52.927Z,12.90
2022-11-22T18:34:24.382Z,11.65
2022-11-22T18:37:00.312Z,11.88
2022-11-22T18:39:33.936Z,11.63
2022-11-22T18:42:02.089Z,12.60
2022-11-22T18:44:29.709Z,12.40
2022-11-22T18:46:57.059Z,13.32
2022-11-22T18:49:24.423Z,12.00
2022-11-22T18:51:52.218Z,11.55
2022-11-22T18:54:21.609Z,13.45
2022-11-22T18:56:50.043Z,12.07
2022-11-22T18:59:17.736Z,11.95
2022-11-22T19:01:45.047Z,12.20
2022-11-22T19:04:16.227Z,11.20
2022-11-22T19:06:44.427Z,11.70
2022-11-22T19:09:12.052Z,11.55
2022-11-22T19:11:39.382Z,12.45
2022-11-22T19:14:07.035Z,11.65
2022-11-22T19:16:34.755Z,12.35
2022-11-22T19:19:02.150Z,12.25
2022-11-22T19:21:30.318Z,11.77
2022-11-22T19:23:57.914Z,11.30
2022-11-22T19:26:27.015Z,11.68
2022-11-22T19:28:56.150Z,10.65
2022-11-22T19:31:26.095Z,12.25
2022-11-22T19:33:53.488Z,12.32
2022-11-22T19:36:26.427Z,12.07
2022-11-22T19:38:58.049Z,11.68
2022-11-22T19:41:25.984Z,11.15
2022-11-22T19:43:53.383Z,9.50
2022-11-22T19:46:21.086Z,12.05
2022-11-22T19:48:52.859Z,11.80
2022-11-22T19:51:20.523Z,11.00
2022-11-22T19:53:48.218Z,14.00
2022-11-22T19:56:17.482Z,11.60
2022-11-22T19:58:53.078Z,11.10
2022-11-22T20:01:22.575Z,11.27
2022-11-22T20:03:58.807Z,11.98
2022-11-22T20:06:27.077Z,11.50
2022-11-22T20:09:00.759Z,11.52
2022-11-22T20:11:28.104Z,10.75
2022-11-22T20:13:55.698Z,10.30
2022-11-22T20:16:25.945Z,11.02
2022-11-22T20:18:54.724Z,10.75
2022-11-22T20:21:23.328Z,11.93
2022-11-22T20:23:51.922Z,11.23
2022-11-22T20:26:20.341Z,9.65
2022-11-22T20:28:48.364Z,10.35
2022-11-22T20:31:17.955Z,10.00
2022-11-22T20:33:49.740Z,11.10
2022-11-22T20:36:28.890Z,10.68
2022-11-22T20:38:56.579Z,9.90
2022-11-22T20:41:26.874Z,9.77
2022-11-22T20:43:54.493Z,9.90
2022-11-22T20:46:23.687Z,10.50
2022-11-22T20:48:53.100Z,10.60
2022-11-22T20:51:25.597Z,11.23
2022-11-22T20:53:53.926Z,10.63
2022-11-22T20:56:21.538Z,11.27
2022-11-22T20:58:49.246Z,11.38
2022-11-22T21:01:19.462Z,10.52
2022-11-22T21:03:47.039Z,11.90
2022-11-22T21:06:15.888Z,11.38
2022-11-22T21:08:45.732Z,10.57
2022-11-22T21:11:18.286Z,10.85
2022-11-22T21:13:47.113Z,11.12
2022-11-22T21:16:26.090Z,10.13
2022-11-22T21:19:01.828Z,9.82
2022-11-22T21:21:29.657Z,10.60
2022-11-22T21:23:59.977Z,10.05
2022-11-22T21:26:27.462Z,10.45
2022-11-22T21:28:55.099Z,11.15
2022-11-22T21:31:23.380Z,10.82
2022-11-22T21:33:51.420Z,11.20
2022-11-22T21:36:19.305Z,10.32
2022-11-22T21:38:47.232Z,11.05
2022-11-22T21:44:07.970Z,9.75
2022-11-22T21:46:35.298Z,10.88
2022-11-22T21:49:02.658Z,10.88
2022-11-22T21:51:30.284Z,11.43
2022-11-22T21:53:58.586Z,11.73
2022-11-22T21:56:26.795Z,10.98
2022-11-22T21:58:54.810Z,11.05
2022-11-22T22:01:22.517Z,11.10
2022-11-22T22:03:50.538Z,11.43
2022-11-22T22:06:18.400Z,10.52
2022-11-22T22:08:45.740Z,10.70
2022-11-22T22:11:13.445Z,10.60
2022-11-22T22:13:40.731Z,10.23
2022-11-22T22:16:12.761Z,10.80
2022-11-22T22:18:40.358Z,10.85
2022-11-22T22:21:09.657Z,11.00
2022-11-22T22:23:38.323Z,11.65
2022-11-22T22:26:14.203Z,10.73
2022-11-22T22:28:41.918Z,10.30
2022-11-22T22:31:17.149Z,11.00
2022-11-22T22:33:45.688Z,10.10
2022-11-22T22:36:13.864Z,9.95
2022-11-22T22:38:41.614Z,9.10
2022-11-22T22:41:10.921Z,10.20
2022-11-22T22:43:40.096Z,10.63
2022-11-22T22:46:19.494Z,10.65
2022-11-22T22:48:47.957Z,10.70
2022-11-22T22:51:16.583Z,9.93
2022-11-22T22:53:44.570Z,10.68
2022-11-22T22:56:13.989Z,11.10
2022-11-22T22:58:41.775Z,9.95
2022-11-22T23:01:17.373Z,10.20
2022-11-22T23:03:57.175Z,10.35
2022-11-22T23:06:33.937Z,9.93
2022-11-22T23:09:03.019Z,10.02
2022-11-22T23:11:50.108Z,10.63
2022-11-22T23:14:22.780Z,10.85
2022-11-22T23:19:25.071Z,9.82
2022-11-22T23:21:52.353Z,9.95
2022-11-22T23:24:19.761Z,11.23
2022-11-22T23:26:47.618Z,10.32
2022-11-22T23:29:14.916Z,10.43
2022-11-22T23:31:42.321Z,9.98
2022-11-22T23:34:11.200Z,10.15
2022-11-22T23:36:40.985Z,9.98
2022-11-22T23:39:08.978Z,11.15
2022-11-22T23:41:36.597Z,9.73
2022-11-22T23:44:04.208Z,10.73
2022-11-22T23:46:31.499Z,10.30
2022-11-22T23:49:00.809Z,10.02
2022-11-22T23:51:29.054Z,10.07
2022-11-22T23:53:57.488Z,10.70
2022-11-22T23:56:25.533Z,10.20
2022-11-22T23:58:53.098Z,10.25
